createdAt,value
2019-02-18T00:01:10.667Z,98.10
2019-02-18T00:03:39.607Z,98.20
2019-02-18T00:06:08.508Z,98.20
2019-02-18T00:08:37.472Z,98.20
2019-02-18T00:11:06.567Z,98.20
2019-02-18T00:13:35.885Z,98.10
2019-02-18T00:16:05.449Z,98.00
2019-02-18T00:18:34.328Z,97.90
2019-02-18T00:21:03.744Z,97.90
2019-02-18T00:23:32.637Z,97.80
2019-02-18T00:26:01.588Z,97.70
2019-02-18T00:28:31.205Z,97.80
2019-02-18T00:31:00.463Z,97.80
2019-02-18T00:33:29.332Z,97.80
2019-02-18T00:35:58.630Z,98.00
2019-02-18T00:38:27.526Z,98.20
2019-02-18T00:40:56.992Z,98.10
2019-02-18T00:43:26.664Z,97.90
2019-02-18T00:45:55.470Z,97.70
2019-02-18T00:48:24.164Z,97.60
2019-02-18T00:50:53.058Z,97.60
2019-02-18T00:53:22.452Z,97.50
2019-02-18T00:55:51.713Z,97.20
2019-02-18T00:58:21.064Z,97.00
2019-02-18T01:00:50.307Z,96.90
2019-02-18T01:03:19.628Z,96.60
2019-02-18T01:05:48.536Z,96.40
2019-02-18T01:08:18.097Z,96.50
2019-02-18T01:10:46.887Z,96.60
2019-02-18T01:13:16.491Z,96.80
2019-02-18T01:15:45.537Z,97.30
2019-02-18T01:18:14.368Z,97.10
2019-02-18T01:20:43.687Z,97.10
2019-02-18T01:23:12.889Z,97.20
2019-02-18T01:25:41.766Z,97.20
2019-02-18T01:28:10.681Z,97.20
2019-02-18T01:30:39.970Z,97.20
2019-02-18T01:33:09.701Z,97.20
2019-02-18T01:35:39.121Z,97.20
2019-02-18T01:38:08.124Z,97.30
2019-02-18T01:40:37.477Z,97.30
2019-02-18T01:43:06.779Z,97.30
2019-02-18T01:45:36.021Z,97.40
2019-02-18T01:48:04.988Z,97.60
2019-02-18T01:50:34.004Z,98.10
2019-02-18T01:53:03.360Z,98.30
2019-02-18T01:55:32.731Z,98.50
2019-02-18T01:58:01.633Z,98.90
2019-02-18T02:00:30.984Z,98.60
2019-02-18T02:03:00.489Z,98.50
2019-02-18T02:05:29.271Z,98.60
2019-02-18T02:07:58.090Z,98.50
2019-02-18T02:10:27.339Z,98.40
2019-02-18T02:13:15.634Z,98.10
2019-02-18T02:15:44.564Z,98.10
2019-02-18T02:18:13.331Z,97.90
2019-02-18T02:20:42.289Z,97.60
2019-02-18T02:23:11.698Z,97.50
2019-02-18T02:25:40.998Z,97.20
2019-02-18T02:28:10.343Z,97.00
2019-02-18T02:30:39.512Z,96.90
2019-02-18T02:33:08.769Z,96.70
2019-02-18T02:35:38.139Z,96.70
2019-02-18T02:38:08.192Z,96.80
2019-02-18T02:40:37.615Z,97.10
2019-02-18T02:43:06.550Z,97.30
2019-02-18T02:45:36.024Z,97.50
2019-02-18T02:48:05.282Z,97.80
2019-02-18T02:50:34.104Z,97.90
2019-02-18T02:53:03.616Z,98.00
2019-02-18T02:55:33.065Z,97.90
2019-02-18T02:58:02.481Z,97.80
2019-02-18T03:00:31.937Z,97.60
2019-02-18T03:03:00.746Z,97.30
2019-02-18T03:05:29.959Z,97.10
2019-02-18T03:07:59.317Z,97.00
2019-02-18T03:10:28.631Z,96.60
2019-02-18T03:12:57.482Z,96.30
2019-02-18T03:15:26.356Z,96.00
2019-02-18T03:17:55.574Z,95.90
2019-02-18T03:20:24.542Z,95.80
2019-02-18T03:22:53.843Z,96.00
2019-02-18T03:25:27.124Z,95.40
2019-02-18T03:28:20.444Z,95.40
2019-02-18T03:30:58.275Z,95.50
2019-02-18T03:33:32.873Z,95.40
2019-02-18T03:36:02.250Z,95.30
2019-02-18T03:38:32.153Z,95.70
2019-02-18T03:41:03.363Z,95.50
2019-02-18T03:43:32.116Z,95.60
2019-02-18T03:46:01.018Z,95.80
2019-02-18T03:48:30.608Z,96.20
2019-02-18T03:50:59.397Z,96.30
2019-02-18T03:53:28.749Z,96.60
2019-02-18T03:55:58.296Z,96.70
2019-02-18T03:58:27.566Z,96.90
2019-02-18T04:01:05.390Z,97.10
2019-02-18T04:03:34.407Z,97.00
2019-02-18T04:06:03.975Z,97.20
2019-02-18T04:08:42.305Z,97.20
2019-02-18T04:11:04.068Z,97.30
2019-02-18T04:13:34.999Z,97.50
2019-02-18T04:16:04.505Z,97.40
2019-02-18T04:18:33.971Z,97.50
2019-02-18T04:21:02.971Z,97.60
2019-02-18T04:23:32.527Z,97.80
2019-02-18T04:26:01.464Z,98.10
2019-02-18T04:28:30.891Z,98.00
2019-02-18T04:31:00.416Z,98.00
2019-02-18T04:33:29.827Z,98.00
2019-02-18T04:35:58.617Z,98.00
2019-02-18T04:38:28.192Z,98.00
2019-02-18T04:40:57.407Z,97.90
2019-02-18T04:43:26.782Z,97.70
2019-02-18T04:45:56.235Z,97.60
2019-02-18T04:48:25.512Z,97.50
2019-02-18T04:50:54.789Z,97.70
2019-02-18T04:53:24.310Z,98.10
2019-02-18T04:55:53.460Z,98.30
2019-02-18T04:58:22.789Z,98.40
2019-02-18T05:00:51.599Z,98.50
2019-02-18T05:03:20.459Z,98.40
2019-02-18T05:05:49.351Z,98.20
2019-02-18T05:08:18.770Z,97.80
2019-02-18T05:10:47.950Z,97.80
2019-02-18T05:13:17.550Z,97.40
2019-02-18T05:15:46.584Z,97.10
2019-02-18T05:18:15.693Z,96.80
2019-02-18T05:20:44.605Z,96.50
2019-02-18T05:23:14.072Z,96.50
2019-02-18T05:25:43.591Z,96.60
2019-02-18T05:31:41.976Z,96.90
2019-02-18T05:34:10.865Z,97.20
2019-02-18T05:36:40.053Z,97.30
2019-02-18T05:39:17.602Z,97.50
2019-02-18T05:41:39.757Z,97.70
2019-02-18T05:44:09.272Z,97.80
2019-02-18T05:46:39.406Z,97.70
2019-02-18T05:49:09.150Z,97.60
2019-02-18T05:51:38.637Z,97.40
2019-02-18T05:54:07.763Z,97.20
2019-02-18T05:56:36.941Z,97.10
2019-02-18T05:59:06.456Z,97.00
2019-02-18T06:01:36.251Z,97.30
2019-02-18T06:04:05.684Z,96.60
2019-02-18T06:06:35.019Z,96.50
2019-02-18T06:09:05.107Z,96.60
2019-02-18T06:11:33.981Z,96.80
2019-02-18T06:14:03.560Z,96.90
2019-02-18T06:16:32.618Z,96.80
2019-02-18T06:19:01.619Z,96.60
2019-02-18T06:21:30.283Z,96.30
2019-02-18T06:23:59.020Z,95.90
2019-02-18T06:26:27.699Z,95.70
2019-02-18T06:28:56.219Z,95.70
2019-02-18T06:31:24.921Z,95.30
2019-02-18T06:33:53.675Z,94.80
2019-02-18T06:36:23.921Z,93.90
2019-02-18T06:38:52.742Z,93.80
2019-02-18T06:41:21.394Z,93.40
2019-02-18T06:43:50.050Z,93.30
2019-02-18T06:46:23.541Z,92.80
2019-02-18T06:48:54.087Z,92.70
2019-02-18T06:51:22.728Z,92.50
2019-02-18T06:53:51.363Z,91.90
2019-02-18T06:56:21.650Z,91.60
2019-02-18T06:58:54.815Z,90.90
2019-02-18T07:01:28.075Z,89.80
2019-02-18T07:04:16.663Z,88.00
2019-02-18T07:06:46.936Z,86.60
2019-02-18T07:09:19.949Z,84.80
2019-02-18T07:11:50.231Z,83.50
2019-02-18T07:14:18.999Z,81.20
2019-02-18T07:16:47.670Z,80.20
2019-02-18T07:19:16.387Z,77.20
2019-02-18T07:21:45.094Z,74.20
2019-02-18T07:24:15.327Z,72.50
2019-02-18T07:26:44.041Z,70.90
2019-02-18T07:29:12.730Z,68.60
2019-02-18T07:31:41.477Z,65.30
2019-02-18T07:34:10.101Z,62.40
2019-02-18T07:36:38.686Z,62.50
2019-02-18T07:39:07.876Z,61.40
2019-02-18T07:41:36.465Z,61.20
2019-02-18T07:44:05.202Z,62.50
2019-02-18T07:46:33.914Z,61.70
2019-02-18T07:49:02.539Z,61.00
2019-02-18T07:51:31.322Z,61.70
2019-02-18T07:53:59.841Z,62.80
2019-02-18T07:56:28.427Z,63.40
2019-02-18T07:58:57.092Z,64.00
2019-02-18T08:01:25.715Z,65.20
2019-02-18T08:03:54.351Z,65.60
2019-02-18T08:06:23.161Z,65.60
2019-02-18T08:08:51.904Z,65.60
2019-02-18T08:11:22.494Z,66.40
2019-02-18T08:13:51.274Z,68.10
2019-02-18T08:16:19.854Z,70.00
2019-02-18T08:18:50.442Z,68.70
2019-02-18T08:21:19.509Z,66.80
2019-02-18T08:23:48.109Z,66.40
2019-02-18T08:26:16.891Z,67.90
2019-02-18T08:28:46.035Z,68.90
2019-02-18T08:31:14.757Z,70.20
2019-02-18T08:33:43.317Z,71.80
2019-02-18T08:36:11.944Z,72.40
2019-02-18T08:38:40.530Z,72.50
2019-02-18T08:41:09.157Z,73.20
2019-02-18T08:43:37.915Z,73.80
2019-02-18T08:46:06.627Z,74.10
2019-02-18T08:48:35.386Z,73.70
2019-02-18T08:51:04.170Z,73.20
2019-02-18T08:53:32.698Z,73.30
2019-02-18T08:56:01.390Z,73.70
2019-02-18T08:58:30.000Z,73.90
2019-02-18T09:01:02.481Z,74.00
2019-02-18T09:03:30.288Z,74.10
2019-02-18T09:05:58.890Z,74.10
2019-02-18T09:08:27.597Z,73.30
2019-02-18T09:10:56.238Z,73.70
2019-02-18T09:13:25.004Z,74.40
2019-02-18T09:16:00.021Z,75.20
2019-02-18T09:18:23.883Z,76.00
2019-02-18T09:20:52.574Z,76.40
2019-02-18T09:23:22.903Z,76.50
2019-02-18T09:25:52.420Z,77.60
2019-02-18T09:28:21.184Z,79.10
2019-02-18T09:30:50.707Z,80.60
2019-02-18T09:33:19.435Z,81.50
2019-02-18T09:35:48.221Z,80.90
2019-02-18T09:38:24.350Z,82.40
2019-02-18T09:43:17.634Z,83.00
2019-02-18T09:45:46.244Z,83.60
2019-02-18T09:48:14.951Z,83.30
2019-02-18T09:50:43.660Z,83.20
2019-02-18T09:53:12.474Z,83.00
2019-02-18T09:55:41.144Z,82.90
2019-02-18T09:58:09.798Z,83.60
2019-02-18T10:00:38.470Z,83.60
2019-02-18T10:03:07.108Z,83.70
2019-02-18T10:05:35.798Z,83.50
2019-02-18T10:08:04.476Z,83.50
2019-02-18T10:10:34.662Z,83.60
2019-02-18T10:13:03.484Z,83.10
2019-02-18T10:15:32.153Z,83.20
2019-02-18T10:18:00.757Z,83.00
2019-02-18T10:20:29.553Z,83.30
2019-02-18T10:22:58.233Z,83.10
2019-02-18T10:25:26.853Z,83.00
2019-02-18T10:27:55.693Z,83.20
2019-02-18T10:30:24.400Z,83.90
2019-02-18T10:32:53.031Z,83.20
2019-02-18T10:35:22.826Z,82.90
2019-02-18T10:37:55.240Z,82.90
2019-02-18T10:40:21.823Z,82.50
2019-02-18T10:42:50.573Z,82.20
2019-02-18T10:45:19.228Z,82.30
2019-02-18T10:47:47.971Z,81.20
2019-02-18T10:50:17.044Z,81.50
2019-02-18T10:52:45.746Z,80.60
2019-02-18T10:55:14.419Z,80.70
2019-02-18T10:57:43.179Z,79.90
2019-02-18T11:00:16.212Z,79.80
2019-02-18T11:02:45.158Z,80.00
2019-02-18T11:05:13.912Z,79.00
2019-02-18T11:07:42.687Z,78.70
2019-02-18T11:10:15.545Z,78.60
2019-02-18T11:12:44.352Z,78.00
2019-02-18T11:15:16.057Z,77.20
2019-02-18T11:17:45.204Z,76.30
2019-02-18T11:20:14.313Z,75.50
2019-02-18T11:22:43.625Z,74.90
2019-02-18T11:25:13.412Z,74.70
2019-02-18T11:27:42.068Z,74.40
2019-02-18T11:30:19.972Z,73.60
2019-02-18T11:32:50.226Z,73.30
2019-02-18T11:35:19.031Z,72.80
2019-02-18T11:37:47.729Z,72.40
2019-02-18T11:40:18.493Z,71.60
2019-02-18T11:42:47.173Z,71.30
2019-02-18T11:45:16.843Z,71.20
2019-02-18T11:47:45.545Z,71.00
2019-02-18T11:50:15.243Z,70.60
2019-02-18T11:52:43.946Z,70.80
2019-02-18T11:55:15.586Z,70.60
2019-02-18T11:57:46.163Z,70.50
2019-02-18T12:00:17.867Z,70.40
2019-02-18T12:02:46.718Z,69.80
2019-02-18T12:05:15.428Z,69.60
2019-02-18T12:07:44.030Z,68.10
2019-02-18T12:10:13.500Z,68.20
2019-02-18T12:12:42.480Z,67.50
2019-02-18T12:15:17.405Z,67.10
2019-02-18T12:17:46.188Z,67.20
2019-02-18T12:20:15.886Z,67.50
2019-02-18T12:22:44.632Z,66.50
2019-02-18T12:25:13.691Z,65.70
2019-02-18T12:27:42.578Z,65.90
2019-02-18T12:30:15.813Z,65.30
2019-02-18T12:32:44.558Z,65.50
2019-02-18T12:35:13.319Z,65.40
2019-02-18T12:37:42.010Z,65.50
2019-02-18T12:40:16.963Z,65.40
2019-02-18T12:42:45.831Z,65.50
2019-02-18T12:45:15.097Z,65.40
2019-02-18T12:47:43.821Z,65.70
2019-02-18T12:50:12.854Z,65.90
2019-02-18T12:52:44.256Z,65.60
2019-02-18T12:55:13.307Z,65.30
2019-02-18T12:57:42.608Z,65.10
2019-02-18T13:00:14.032Z,64.70
2019-02-18T13:02:44.606Z,64.50
2019-02-18T13:05:13.888Z,64.50
2019-02-18T13:07:42.681Z,65.00
2019-02-18T13:10:11.978Z,65.90
2019-02-18T13:12:41.300Z,65.20
2019-02-18T13:15:17.587Z,65.40
2019-02-18T13:17:46.290Z,65.70
2019-02-18T13:20:14.939Z,66.00
2019-02-18T13:22:43.682Z,66.40
2019-02-18T13:25:12.417Z,67.00
2019-02-18T13:27:41.128Z,67.00
2019-02-18T13:30:15.537Z,67.30
2019-02-18T13:32:44.303Z,67.70
2019-02-18T13:35:13.054Z,68.30
2019-02-18T13:37:41.926Z,69.00
2019-02-18T13:40:11.251Z,69.40
2019-02-18T13:42:43.231Z,69.80
2019-02-18T13:45:11.943Z,70.30
2019-02-18T13:47:40.598Z,71.10
2019-02-18T13:50:11.425Z,71.50
2019-02-18T13:52:40.144Z,72.30
2019-02-18T13:55:12.726Z,72.70
2019-02-18T13:57:42.089Z,73.50
2019-02-18T14:00:21.401Z,74.10
2019-02-18T14:02:50.750Z,74.40
2019-02-18T14:05:21.072Z,75.00
2019-02-18T14:07:49.830Z,75.20
2019-02-18T14:10:19.428Z,75.60
2019-02-18T14:12:48.337Z,76.00
2019-02-18T14:15:17.852Z,76.30
2019-02-18T14:17:46.519Z,76.40
2019-02-18T14:20:16.760Z,76.90
2019-02-18T14:22:45.413Z,77.20
2019-02-18T14:25:14.803Z,77.60
2019-02-18T14:27:43.446Z,77.80
2019-02-18T14:30:17.030Z,78.10
2019-02-18T14:32:45.698Z,77.60
2019-02-18T14:35:16.176Z,78.40
2019-02-18T14:37:44.781Z,78.60
2019-02-18T14:40:15.266Z,79.00
2019-02-18T14:42:44.026Z,79.40
2019-02-18T14:45:12.766Z,80.20
2019-02-18T14:47:41.578Z,81.20
2019-02-18T14:50:10.603Z,81.60
2019-02-18T14:52:39.358Z,82.20
2019-02-18T14:55:09.114Z,82.60
2019-02-18T14:57:37.794Z,83.00
2019-02-18T15:00:12.922Z,83.20
2019-02-18T15:02:41.813Z,83.30
2019-02-18T15:05:10.609Z,83.50
2019-02-18T15:07:39.667Z,83.40
2019-02-18T15:10:09.972Z,83.80
2019-02-18T15:12:38.714Z,83.80
2019-02-18T15:15:07.463Z,84.40
2019-02-18T15:17:37.106Z,84.70
2019-02-18T15:20:07.834Z,85.20
2019-02-18T15:22:40.631Z,85.40
2019-02-18T15:25:10.398Z,85.50
2019-02-18T15:27:39.108Z,86.00
2019-02-18T15:30:12.709Z,86.30
2019-02-18T15:32:41.383Z,86.70
2019-02-18T15:35:10.085Z,87.00
2019-02-18T15:37:39.176Z,87.60
2019-02-18T15:40:12.744Z,88.40
2019-02-18T15:42:42.570Z,88.90
2019-02-18T15:45:11.619Z,89.30
2019-02-18T15:47:40.297Z,89.50
2019-02-18T15:50:13.026Z,89.70
2019-02-18T15:52:42.047Z,90.10
2019-02-18T15:55:11.272Z,89.70
2019-02-18T15:57:39.959Z,90.00
2019-02-18T16:00:17.985Z,90.00
2019-02-18T16:02:47.029Z,90.10
2019-02-18T16:05:15.766Z,90.20
2019-02-18T16:07:44.518Z,90.30
2019-02-18T16:10:13.183Z,90.50
2019-02-18T16:12:50.215Z,90.80
2019-02-18T16:15:12.414Z,91.10
2019-02-18T16:17:41.478Z,91.50
2019-02-18T16:20:14.139Z,91.70
2019-02-18T16:22:43.489Z,91.90
2019-02-18T16:25:15.257Z,92.10
2019-02-18T16:27:43.852Z,92.40
2019-02-18T16:30:14.275Z,92.50
2019-02-18T16:32:43.210Z,92.60
2019-02-18T16:35:11.935Z,92.70
2019-02-18T16:37:41.046Z,92.80
2019-02-18T16:40:15.058Z,92.80
2019-02-18T16:42:42.964Z,92.90
2019-02-18T16:45:14.272Z,92.90
2019-02-18T16:47:42.972Z,92.90
2019-02-18T16:50:11.661Z,92.90
2019-02-18T16:52:40.304Z,92.80
2019-02-18T16:55:11.113Z,92.90
2019-02-18T16:57:39.823Z,92.90
2019-02-18T17:00:13.276Z,92.80
2019-02-18T17:02:41.939Z,92.80
2019-02-18T17:05:10.506Z,92.70
2019-02-18T17:07:39.259Z,92.70
2019-02-18T17:10:08.482Z,92.70
2019-02-18T17:12:37.074Z,92.50
2019-02-18T17:15:09.112Z,92.50
2019-02-18T17:17:37.838Z,92.40
2019-02-18T17:20:07.143Z,92.50
2019-02-18T17:22:35.808Z,92.60
2019-02-18T17:25:05.820Z,92.60
2019-02-18T17:27:34.468Z,92.90
2019-02-18T17:30:03.668Z,92.90
2019-02-18T17:32:32.525Z,92.50
2019-02-18T17:35:01.264Z,92.50
2019-02-18T17:37:29.988Z,92.50
2019-02-18T17:39:58.668Z,92.50
2019-02-18T17:42:27.382Z,92.50
2019-02-18T17:44:56.183Z,92.70
2019-02-18T17:47:24.864Z,92.70
2019-02-18T17:49:53.523Z,92.80
2019-02-18T17:52:22.212Z,92.80
2019-02-18T17:54:51.040Z,92.80
2019-02-18T17:57:19.671Z,93.30
2019-02-18T17:59:48.281Z,92.80
2019-02-18T18:02:17.411Z,92.80
2019-02-18T18:04:46.161Z,92.90
2019-02-18T18:07:14.953Z,93.00
2019-02-18T18:13:25.469Z,93.00
2019-02-18T18:15:54.593Z,93.10
2019-02-18T18:18:24.363Z,93.20
2019-02-18T18:20:53.564Z,93.20
2019-02-18T18:23:23.744Z,93.30
2019-02-18T18:25:53.174Z,93.20
2019-02-18T18:28:22.638Z,93.30
2019-02-18T18:30:52.097Z,93.40
2019-02-18T18:33:21.517Z,93.30
2019-02-18T18:35:50.917Z,93.30
2019-02-18T18:38:20.425Z,93.30
2019-02-18T18:40:49.950Z,93.30
2019-02-18T18:43:19.362Z,93.30
2019-02-18T18:45:48.603Z,93.30
2019-02-18T18:48:17.817Z,93.30
2019-02-18T18:50:46.736Z,93.30
2019-02-18T18:53:15.906Z,93.30
2019-02-18T18:55:45.710Z,93.20
2019-02-18T18:58:15.212Z,93.10
2019-02-18T19:00:45.041Z,93.20
2019-02-18T19:03:14.212Z,93.20
2019-02-18T19:05:43.657Z,93.30
2019-02-18T19:08:12.472Z,93.20
2019-02-18T19:10:42.084Z,93.30
2019-02-18T19:13:11.793Z,93.30
2019-02-18T19:15:49.299Z,93.30
2019-02-18T19:18:11.654Z,93.30
2019-02-18T19:20:41.597Z,93.30
2019-02-18T19:23:10.400Z,93.20
2019-02-18T19:25:39.604Z,93.10
2019-02-18T19:28:09.105Z,93.00
2019-02-18T19:30:39.474Z,93.00
2019-02-18T19:33:08.619Z,93.00
2019-02-18T19:35:37.975Z,93.00
2019-02-18T19:38:09.191Z,92.90
2019-02-18T19:40:38.472Z,92.80
2019-02-18T19:43:07.727Z,92.70
2019-02-18T19:45:37.076Z,92.70
2019-02-18T19:48:06.332Z,92.60
2019-02-18T19:50:35.590Z,92.50
2019-02-18T19:53:04.414Z,92.40
2019-02-18T19:55:33.786Z,92.40
2019-02-18T19:58:03.566Z,92.20
2019-02-18T20:00:33.002Z,92.10
2019-02-18T20:03:01.750Z,91.90
2019-02-18T20:05:31.335Z,92.00
2019-02-18T20:08:00.948Z,91.90
2019-02-18T20:13:59.238Z,91.80
2019-02-18T20:16:29.394Z,91.70
2019-02-18T20:18:59.172Z,91.70
2019-02-18T20:21:28.410Z,91.70
2019-02-18T20:23:57.926Z,91.70
2019-02-18T20:26:27.583Z,91.70
2019-02-18T20:28:57.248Z,91.70
2019-02-18T20:31:26.910Z,91.80
2019-02-18T20:33:55.945Z,91.80
2019-02-18T20:36:25.413Z,91.80
2019-02-18T20:38:55.070Z,91.90
2019-02-18T20:41:24.510Z,92.10
2019-02-18T20:43:53.880Z,92.10
2019-02-18T20:46:22.796Z,92.20
2019-02-18T20:48:51.648Z,92.30
2019-02-18T20:51:21.860Z,92.40
2019-02-18T20:53:51.457Z,92.50
2019-02-18T20:56:20.928Z,92.60
2019-02-18T20:58:50.560Z,92.90
2019-02-18T21:01:19.965Z,93.10
2019-02-18T21:03:49.185Z,93.30
2019-02-18T21:06:18.459Z,93.50
2019-02-18T21:08:47.459Z,93.60
2019-02-18T21:11:16.399Z,93.70
2019-02-18T21:13:45.671Z,93.60
2019-02-18T21:16:14.834Z,93.60
2019-02-18T21:18:43.997Z,93.60
2019-02-18T21:21:13.396Z,93.60
2019-02-18T21:23:42.773Z,93.80
2019-02-18T21:26:12.640Z,93.80
2019-02-18T21:28:42.201Z,93.80
2019-02-18T21:31:11.382Z,93.90
2019-02-18T21:33:40.620Z,94.00
2019-02-18T21:36:10.001Z,94.00
2019-02-18T21:38:39.252Z,94.10
2019-02-18T21:41:08.961Z,94.20
2019-02-18T21:43:38.259Z,94.00
2019-02-18T21:46:07.454Z,93.90
2019-02-18T21:48:36.498Z,93.70
2019-02-18T21:51:05.876Z,93.70
2019-02-18T21:53:34.702Z,93.30
2019-02-18T21:56:04.042Z,93.00
2019-02-18T21:58:33.267Z,92.90
2019-02-18T22:01:02.785Z,92.80
2019-02-18T22:03:32.039Z,92.70
2019-02-18T22:06:01.383Z,92.60
2019-02-18T22:08:30.146Z,92.60
2019-02-18T22:10:59.322Z,92.50
2019-02-18T22:13:28.034Z,92.60
2019-02-18T22:15:58.403Z,92.50
2019-02-18T22:18:27.622Z,92.50
2019-02-18T22:20:56.942Z,92.90
2019-02-18T22:23:26.136Z,92.50
2019-02-18T22:25:55.344Z,92.50
2019-02-18T22:28:24.101Z,92.50
2019-02-18T22:30:52.828Z,92.50
2019-02-18T22:33:21.885Z,92.60
2019-02-18T22:35:51.048Z,92.50
2019-02-18T22:38:20.262Z,92.70
2019-02-18T22:40:49.074Z,92.70
2019-02-18T22:43:18.864Z,92.70
2019-02-18T22:45:47.791Z,92.70
2019-02-18T22:48:16.963Z,93.10
2019-02-18T22:50:45.888Z,92.70
2019-02-18T22:53:14.959Z,92.70
2019-02-18T22:55:43.932Z,92.70
2019-02-18T22:58:13.286Z,92.70
2019-02-18T23:00:46.367Z,92.60
2019-02-18T23:03:15.559Z,92.70
2019-02-18T23:05:44.443Z,92.80
2019-02-18T23:08:13.388Z,92.90
2019-02-18T23:10:42.695Z,93.00
2019-02-18T23:13:11.655Z,93.40
2019-02-18T23:15:41.234Z,93.40
2019-02-18T23:18:10.467Z,93.50
2019-02-18T23:20:39.733Z,93.60
2019-02-18T23:23:08.934Z,93.70
2019-02-18T23:25:38.174Z,93.90
2019-02-18T23:28:07.447Z,93.80
2019-02-18T23:30:37.062Z,93.80
2019-02-18T23:33:05.978Z,93.80
2019-02-18T23:35:35.354Z,93.90
2019-02-18T23:38:04.615Z,93.90
2019-02-18T23:40:34.003Z,93.80
2019-02-18T23:43:02.896Z,93.80
2019-02-18T23:45:32.361Z,93.90
2019-02-18T23:48:01.739Z,94.00
2019-02-18T23:50:31.113Z,94.00
2019-02-18T23:53:00.194Z,94.10
2019-02-18T23:55:29.538Z,94.20
2019-02-18T23:57:58.787Z,94.00
